Time;durP1;ratioP1;P1;durP2;ratioP2;P2;SDS_P1;SDS_P2;PMS_P1;PMS_P2;Temp;Humidity;BMP_temperature;BMP_pressure;BME280_temperature;BME280_humidity;BME280_pressure;Samples;Min_cycle;Max_cycle;Signal;HPM_P1;HPM_P2
2021/11/08 00:01:46;;;;;;;;;;;6.60;99.90;;;;;;5073579;28;19924;-73
2021/11/08 00:04:11;;;;;;;;;;;6.50;99.90;;;;;;5085041;28;19920;-73
2021/11/08 00:06:37;;;;;;;;;;;6.50;99.90;;;;;;5073687;28;20026;-73
2021/11/08 00:09:04;;;;;;;;;;;6.50;99.90;;;;;;5071348;28;19920;-73
2021/11/08 00:11:30;;;;;;;;;;;6.40;99.90;;;;;;5072219;28;20822;-73
2021/11/08 00:13:57;;;;;;;;;;;6.40;99.90;;;;;;5069398;28;19923;-73
2021/11/08 00:16:46;;;;;;;;;;;6.40;99.90;;;;;;5076108;28;19979;-72
2021/11/08 00:21:43;;;;;;;;;;;6.30;99.90;;;;;;5070781;28;19921;-73
2021/11/08 00:24:11;;;;;;;;;;;6.30;99.90;;;;;;5075685;28;19935;-72
2021/11/08 00:26:36;;;;;;;;;;;6.30;99.90;;;;;;5072490;28;19912;-72
2021/11/08 00:29:02;;;;;;;;;;;6.30;99.90;;;;;;5073271;28;19924;-72
2021/11/08 00:31:28;;;;;;;;;;;6.30;99.90;;;;;;5073312;28;20156;-72
2021/11/08 00:33:53;;;;;;;;;;;6.30;99.90;;;;;;5074189;28;19913;-72
2021/11/08 00:36:19;;;;;;;;;;;6.30;99.90;;;;;;5074126;28;20037;-72
2021/11/08 00:38:44;;;;;;;;;;;6.30;99.90;;;;;;5073746;28;19924;-73
2021/11/08 00:41:10;;;;;;;;;;;6.40;99.90;;;;;;5072596;28;20322;-72
2021/11/08 00:43:35;;;;;;;;;;;6.40;99.90;;;;;;5077425;28;19920;-72
2021/11/08 00:46:01;;;;;;;;;;;6.30;99.90;;;;;;5073493;28;20200;-72
2021/11/08 00:48:31;;;;;;;;;;;6.20;99.90;;;;;;5071549;28;19912;-73
2021/11/08 00:50:57;;;;;;;;;;;6.10;99.90;;;;;;5072466;28;19920;-72
2021/11/08 00:53:22;;;;;;;;;;;6.00;99.90;;;;;;5072765;28;20216;-73
2021/11/08 00:55:49;;;;;;;;;;;6.00;99.90;;;;;;5073292;28;19917;-72
2021/11/08 00:58:29;;;;;;;;;;;5.80;99.90;;;;;;5074777;28;19967;-73
2021/11/08 01:00:58;;;;;;;;;;;5.80;99.90;;;;;;5076175;28;20210;-72
2021/11/08 01:03:23;;;;;;;;;;;5.70;99.90;;;;;;5074790;28;20015;-72
2021/11/08 01:05:49;;;;;;;;;;;5.70;99.90;;;;;;5073053;28;20003;-72
2021/11/08 01:08:15;;;;;;;;;;;5.60;99.90;;;;;;5073917;28;19913;-72
2021/11/08 01:10:40;;;;;;;;;;;5.60;99.90;;;;;;5072831;28;19916;-72
2021/11/08 01:13:06;;;;;;;;;;;5.60;99.90;;;;;;5072835;28;19967;-72
2021/11/08 01:15:32;;;;;;;;;;;5.60;99.90;;;;;;5070296;28;19970;-72
2021/11/08 01:17:58;;;;;;;;;;;5.70;99.90;;;;;;5073481;28;20219;-72
2021/11/08 01:20:31;;;;;;;;;;;5.80;99.90;;;;;;5069363;28;19919;-72
2021/11/08 01:22:57;;;;;;;;;;;5.80;99.90;;;;;;5072698;28;19917;-72
2021/11/08 01:25:22;;;;;;;;;;;5.80;99.90;;;;;;5073479;28;19994;-72
2021/11/08 01:27:53;;;;;;;;;;;5.80;99.90;;;;;;5072737;28;19921;-72
2021/11/08 01:30:26;;;;;;;;;;;5.80;99.90;;;;;;5074874;28;19916;-72
2021/11/08 01:35:35;;;;;;;;;;;5.70;99.90;;;;;;5073027;28;20007;-72
2021/11/08 01:38:04;;;;;;;;;;;5.60;99.90;;;;;;5071487;28;19924;-72
2021/11/08 01:40:31;;;;;;;;;;;5.60;99.90;;;;;;5072588;28;20353;-72
2021/11/08 01:42:56;;;;;;;;;;;5.60;99.90;;;;;;5074611;28;19916;-72
2021/11/08 01:45:22;;;;;;;;;;;5.40;99.90;;;;;;5073886;28;20296;-72
2021/11/08 01:47:48;;;;;;;;;;;5.40;99.90;;;;;;5070188;28;19952;-72
2021/11/08 01:50:13;;;;;;;;;;;5.30;99.90;;;;;;5071322;28;19912;-72
2021/11/08 01:52:39;;;;;;;;;;;5.30;99.90;;;;;;5072734;28;19929;-73
2021/11/08 01:55:05;;;;;;;;;;;5.20;99.90;;;;;;5073305;28;19916;-72
2021/11/08 01:57:31;;;;;;;;;;;5.30;99.90;;;;;;5071778;28;19920;-72
2021/11/08 01:59:59;;;;;;;;;;;5.20;99.90;;;;;;5070590;28;19928;-72
2021/11/08 02:02:25;;;;;;;;;;;5.30;99.90;;;;;;5070938;28;19912;-72
2021/11/08 02:04:51;;;;;;;;;;;5.30;99.90;;;;;;5073892;28;19920;-72
2021/11/08 02:07:16;;;;;;;;;;;5.30;99.90;;;;;;5072251;28;20274;-72
2021/11/08 02:09:42;;;;;;;;;;;5.30;99.90;;;;;;5072522;28;19942;-72
2021/11/08 02:12:09;;;;;;;;;;;5.30;99.90;;;;;;5073637;28;20623;-72
2021/11/08 02:14:37;;;;;;;;;;;5.30;99.90;;;;;;5071723;28;20207;-72
2021/11/08 02:17:02;;;;;;;;;;;5.40;99.90;;;;;;5074614;28;20025;-72
2021/11/08 02:19:28;;;;;;;;;;;5.30;99.90;;;;;;5071630;28;19971;-72
2021/11/08 02:21:56;;;;;;;;;;;5.30;99.90;;;;;;5076378;28;20299;-72
2021/11/08 02:24:24;;;;;;;;;;;5.20;99.90;;;;;;5083250;28;20019;-72
2021/11/08 02:26:50;;;;;;;;;;;5.30;99.90;;;;;;5078722;28;19922;-72
2021/11/08 02:29:16;;;;;;;;;;;5.30;99.90;;;;;;5077768;28;20299;-72
2021/11/08 02:31:42;;;;;;;;;;;5.30;99.90;;;;;;5074715;28;19966;-72
2021/11/08 02:34:07;;;;;;;;;;;5.30;99.90;;;;;;5075777;28;19912;-72
2021/11/08 02:36:37;;;;;;;;;;;5.30;99.90;;;;;;5077319;28;20259;-72
2021/11/08 02:39:04;;;;;;;;;;;5.30;99.90;;;;;;5078962;28;20303;-72
2021/11/08 02:41:29;;;;;;;;;;;5.30;99.90;;;;;;5075472;28;19925;-72
2021/11/08 02:43:57;;;;;;;;;;;5.30;99.90;;;;;;5075150;28;20253;-72
2021/11/08 02:46:26;;;;;;;;;;;5.30;99.90;;;;;;5075463;28;19913;-72
2021/11/08 02:48:52;;;;;;;;;;;5.20;99.90;;;;;;5075172;28;19982;-72
2021/11/08 02:51:25;;;;;;;;;;;5.20;99.90;;;;;;5070231;28;19913;-72
2021/11/08 02:53:55;;;;;;;;;;;5.30;99.90;;;;;;5074529;28;20277;-72
2021/11/08 02:56:20;;;;;;;;;;;5.20;99.90;;;;;;5075739;28;20018;-72
2021/11/08 02:58:46;;;;;;;;;;;5.30;99.90;;;;;;5072866;28;20016;-72
2021/11/08 03:01:14;;;;;;;;;;;5.20;99.90;;;;;;5075346;28;20214;-72
2021/11/08 03:03:42;;;;;;;;;;;5.20;99.90;;;;;;5076412;28;19924;-72
2021/11/08 03:08:43;;;;;;;;;;;5.20;99.90;;;;;;5074812;28;19952;-72
2021/11/08 03:11:10;;;;;;;;;;;5.20;99.90;;;;;;5076140;28;19990;-72
2021/11/08 03:13:38;;;;;;;;;;;5.10;99.90;;;;;;5075775;28;19932;-72
2021/11/08 03:16:29;;;;;;;;;;;5.10;99.90;;;;;;5073641;28;19960;-72
2021/11/08 03:18:56;;;;;;;;;;;5.10;99.90;;;;;;5075729;28;20034;-72
2021/11/08 03:21:23;;;;;;;;;;;5.10;99.90;;;;;;5074338;28;19974;-72
2021/11/08 03:23:51;;;;;;;;;;;5.00;99.90;;;;;;5075377;28;20353;-72
2021/11/08 03:29:00;;;;;;;;;;;5.00;99.90;;;;;;5075073;28;20315;-72
2021/11/08 03:31:29;;;;;;;;;;;4.90;99.90;;;;;;5074095;28;19913;-72
2021/11/08 03:33:55;;;;;;;;;;;4.90;99.90;;;;;;5075463;28;19963;-72
2021/11/08 03:36:21;;;;;;;;;;;4.90;99.90;;;;;;5074020;28;19916;-72
2021/11/08 03:38:46;;;;;;;;;;;4.90;99.90;;;;;;5074848;28;19921;-72
2021/11/08 03:41:12;;;;;;;;;;;4.90;99.90;;;;;;5077074;28;19934;-72
2021/11/08 03:43:37;;;;;;;;;;;4.90;99.90;;;;;;5076341;28;19967;-72
2021/11/08 03:46:04;;;;;;;;;;;4.80;99.90;;;;;;5072998;28;19951;-72
2021/11/08 03:48:30;;;;;;;;;;;4.80;99.90;;;;;;5074616;28;19950;-72
2021/11/08 03:50:56;;;;;;;;;;;4.90;99.90;;;;;;5078124;28;19932;-72
2021/11/08 03:53:22;;;;;;;;;;;4.90;99.90;;;;;;5075464;28;19917;-72
2021/11/08 03:55:48;;;;;;;;;;;4.90;99.90;;;;;;5077102;28;20023;-72
2021/11/08 03:58:14;;;;;;;;;;;4.90;99.90;;;;;;5074239;28;19962;-72
2021/11/08 04:00:42;;;;;;;;;;;4.90;99.90;;;;;;5074654;28;19999;-72
2021/11/08 04:03:09;;;;;;;;;;;4.90;99.90;;;;;;5074709;28;20274;-72
2021/11/08 04:05:36;;;;;;;;;;;4.90;99.90;;;;;;5075524;28;19913;-72
2021/11/08 04:08:04;;;;;;;;;;;4.90;99.90;;;;;;5073284;28;19952;-72
2021/11/08 04:10:31;;;;;;;;;;;4.90;99.90;;;;;;5073156;28;19932;-72
2021/11/08 04:13:03;;;;;;;;;;;4.90;99.90;;;;;;5073031;28;19916;-72
2021/11/08 04:15:33;;;;;;;;;;;4.90;99.90;;;;;;5075422;28;20002;-73
2021/11/08 04:17:59;;;;;;;;;;;4.80;99.90;;;;;;5073372;28;19932;-72
2021/11/08 04:20:24;;;;;;;;;;;4.90;99.90;;;;;;5074156;28;19912;-72
2021/11/08 04:22:52;;;;;;;;;;;4.90;99.90;;;;;;5073000;28;19970;-72
2021/11/08 04:25:20;;;;;;;;;;;5.00;99.90;;;;;;5074770;28;19912;-72
2021/11/08 04:27:46;;;;;;;;;;;5.00;99.90;;;;;;5072064;28;19916;-72
2021/11/08 04:30:13;;;;;;;;;;;5.00;99.90;;;;;;5073776;28;19917;-72
2021/11/08 04:35:30;;;;;;;;;;;5.00;99.90;;;;;;5075497;28;19959;-72
2021/11/08 04:43:11;;;;;;;;;;;4.90;99.90;;;;;;5072537;28;20212;-72
2021/11/08 04:51:32;;;;;;;;;;;5.00;99.90;;;;;;5074145;28;20008;-72
2021/11/08 05:31:42;;;;;;;;;;;5.20;99.90;;;;;;5075564;28;19995;-72
2021/11/08 05:34:08;;;;;;;;;;;5.20;99.90;;;;;;5073562;28;19912;-72
2021/11/08 05:36:33;;;;;;;;;;;5.30;99.90;;;;;;5071851;28;20279;-72
2021/11/08 05:39:00;;;;;;;;;;;5.30;99.90;;;;;;5072212;28;20391;-72
2021/11/08 05:41:27;;;;;;;;;;;5.30;99.90;;;;;;5071802;28;19967;-72
2021/11/08 05:43:52;;;;;;;;;;;5.40;99.90;;;;;;5074638;28;19919;-72
2021/11/08 05:46:19;;;;;;;;;;;5.50;99.90;;;;;;5074252;28;19921;-72
2021/11/08 05:48:48;;;;;;;;;;;5.50;99.90;;;;;;5074985;28;20346;-72
2021/11/08 05:51:14;;;;;;;;;;;5.50;99.90;;;;;;5071766;28;20223;-72
2021/11/08 05:53:44;;;;;;;;;;;5.40;99.90;;;;;;5073519;28;20016;-72
2021/11/08 05:56:26;;;;;;;;;;;5.30;99.90;;;;;;5076053;28;20349;-72
2021/11/08 05:59:10;;;;;;;;;;;5.30;99.90;;;;;;5076947;28;19920;-72
2021/11/08 06:50:34;;;;;;;;;;;5.50;99.90;;;;;;5070668;28;19970;-72
2021/11/08 06:53:06;;;;;;;;;;;5.50;99.90;;;;;;5071006;28;19920;-73
2021/11/08 06:55:32;;;;;;;;;;;5.60;99.90;;;;;;5066907;28;19920;-73
2021/11/08 06:58:04;;;;;;;;;;;5.60;99.90;;;;;;5074503;28;19939;-73
2021/11/08 07:00:31;;;;;;;;;;;5.60;99.90;;;;;;5073105;28;19917;-73
2021/11/08 07:02:56;;;;;;;;;;;5.60;99.90;;;;;;5074141;28;20409;-73
2021/11/08 07:05:22;;;;;;;;;;;5.70;99.90;;;;;;5073783;28;19948;-73
2021/11/08 07:07:48;;;;;;;;;;;5.80;99.90;;;;;;5071323;28;19920;-73
2021/11/08 07:10:13;;;;;;;;;;;5.90;99.90;;;;;;5074809;28;19921;-73
2021/11/08 07:12:39;;;;;;;;;;;6.00;99.90;;;;;;5075952;28;19920;-73
2021/11/08 07:15:06;;;;;;;;;;;6.10;99.90;;;;;;5073387;28;19916;-73
2021/11/08 07:17:32;;;;;;;;;;;6.20;99.90;;;;;;5074654;28;19970;-72
2021/11/08 07:20:00;;;;;;;;;;;6.30;99.90;;;;;;5070971;28;19962;-73
2021/11/08 07:22:28;;;;;;;;;;;6.30;99.90;;;;;;5073092;28;19951;-73
2021/11/08 07:24:54;;;;;;;;;;;6.40;99.90;;;;;;5069641;28;19924;-72
2021/11/08 07:27:19;;;;;;;;;;;6.50;99.90;;;;;;5074151;28;20304;-73
2021/11/08 07:29:45;;;;;;;;;;;6.60;99.90;;;;;;5073820;28;19977;-73
2021/11/08 07:32:11;;;;;;;;;;;6.70;99.90;;;;;;5070927;28;19916;-72
2021/11/08 07:34:36;;;;;;;;;;;6.80;99.90;;;;;;5071370;28;20222;-73
2021/11/08 07:37:02;;;;;;;;;;;6.80;99.90;;;;;;5070273;28;20042;-73
2021/11/08 07:39:28;;;;;;;;;;;6.80;99.90;;;;;;5070461;28;19923;-73
2021/11/08 07:41:54;;;;;;;;;;;6.80;99.90;;;;;;5072798;28;20253;-73
2021/11/08 07:44:19;;;;;;;;;;;6.90;99.90;;;;;;5070654;28;19916;-73
2021/11/08 07:46:45;;;;;;;;;;;6.90;99.90;;;;;;5071838;28;19920;-73
2021/11/08 07:49:11;;;;;;;;;;;7.00;99.90;;;;;;5070731;28;20008;-73
2021/11/08 07:51:36;;;;;;;;;;;7.00;99.90;;;;;;5073624;28;19921;-73
2021/11/08 07:54:02;;;;;;;;;;;7.10;99.90;;;;;;5071114;28;19923;-73
2021/11/08 07:56:28;;;;;;;;;;;7.20;99.90;;;;;;5072589;28;19913;-73
2021/11/08 07:58:53;;;;;;;;;;;7.30;99.90;;;;;;5074248;28;19916;-73
2021/11/08 08:01:19;;;;;;;;;;;7.40;99.90;;;;;;5069782;28;20366;-73
2021/11/08 08:03:46;;;;;;;;;;;7.40;99.90;;;;;;5073630;28;19965;-73
2021/11/08 08:06:12;;;;;;;;;;;7.50;99.90;;;;;;5075957;28;19920;-73
2021/11/08 08:08:38;;;;;;;;;;;7.60;99.90;;;;;;5072765;28;19942;-74
2021/11/08 08:11:05;;;;;;;;;;;7.70;99.90;;;;;;5076191;28;20003;-73
2021/11/08 08:13:31;;;;;;;;;;;7.70;99.90;;;;;;5073964;28;19969;-74
2021/11/08 08:16:00;;;;;;;;;;;7.70;99.90;;;;;;5073030;28;20291;-73
2021/11/08 08:18:27;;;;;;;;;;;7.70;99.90;;;;;;5071111;28;19927;-73
2021/11/08 08:20:53;;;;;;;;;;;7.70;99.90;;;;;;5079588;28;19920;-74
2021/11/08 08:23:18;;;;;;;;;;;7.70;99.90;;;;;;5067911;28;20337;-74
2021/11/08 08:25:44;;;;;;;;;;;7.70;99.90;;;;;;5070361;28;19913;-73
2021/11/08 08:28:10;;;;;;;;;;;7.70;99.90;;;;;;5073467;28;20505;-73
2021/11/08 08:30:36;;;;;;;;;;;7.80;99.90;;;;;;5072067;28;19913;-73
2021/11/08 08:33:02;;;;;;;;;;;7.80;99.90;;;;;;5072337;28;19922;-73
2021/11/08 08:35:28;;;;;;;;;;;7.90;99.90;;;;;;5071737;28;20226;-73
2021/11/08 08:37:53;;;;;;;;;;;8.00;99.90;;;;;;5074970;28;19971;-74
2021/11/08 08:40:19;;;;;;;;;;;8.10;99.90;;;;;;5075457;28;19931;-73
2021/11/08 08:42:45;;;;;;;;;;;8.20;99.90;;;;;;5073570;28;20019;-74
2021/11/08 08:45:11;;;;;;;;;;;8.30;99.90;;;;;;5071016;28;19912;-73
2021/11/08 08:47:37;;;;;;;;;;;8.40;99.90;;;;;;5070019;28;19920;-75
2021/11/08 08:50:06;;;;;;;;;;;8.50;99.90;;;;;;5071207;28;19947;-85
2021/11/08 08:52:31;;;;;;;;;;;8.50;99.90;;;;;;5071911;28;20249;-74
2021/11/08 08:54:57;;;;;;;;;;;8.50;99.90;;;;;;5076104;28;19917;-78
2021/11/08 08:57:22;;;;;;;;;;;8.50;99.90;;;;;;5070350;28;19920;-74
2021/11/08 08:59:48;;;;;;;;;;;8.50;99.90;;;;;;5068415;28;20282;-74
2021/11/08 09:02:14;;;;;;;;;;;8.50;99.90;;;;;;5071550;28;19917;-73
2021/11/08 09:04:40;;;;;;;;;;;8.60;99.90;;;;;;5073807;28;19962;-74
2021/11/08 09:07:07;;;;;;;;;;;8.60;99.90;;;;;;5071404;28;19912;-74
2021/11/08 09:09:35;;;;;;;;;;;8.70;99.90;;;;;;5072238;28;19916;-73
2021/11/08 09:12:01;;;;;;;;;;;8.80;99.90;;;;;;5069517;28;19955;-74
2021/11/08 09:14:29;;;;;;;;;;;8.80;99.90;;;;;;5072537;28;20370;-74
2021/11/08 09:16:54;;;;;;;;;;;9.00;99.90;;;;;;5069767;28;20382;-74
2021/11/08 09:19:20;;;;;;;;;;;9.10;99.90;;;;;;5071935;28;20018;-74
2021/11/08 09:21:46;;;;;;;;;;;9.20;99.90;;;;;;5055603;28;19920;-75
2021/11/08 09:24:11;;;;;;;;;;;9.30;99.90;;;;;;5072698;28;20256;-73
2021/11/08 09:26:37;;;;;;;;;;;9.40;99.90;;;;;;5074304;28;19944;-74
2021/11/08 09:29:03;;;;;;;;;;;9.40;99.90;;;;;;5070209;28;19916;-73
2021/11/08 09:31:29;;;;;;;;;;;9.50;99.90;;;;;;5068635;28;19920;-74
2021/11/08 09:34:03;;;;;;;;;;;9.60;99.90;;;;;;5070997;28;19923;-73
2021/11/08 09:36:30;;;;;;;;;;;9.70;99.90;;;;;;5070062;28;20195;-74
2021/11/08 09:38:58;;;;;;;;;;;9.80;99.90;;;;;;5074341;28;19947;-75
2021/11/08 09:41:34;;;;;;;;;;;9.90;99.90;;;;;;5070743;28;21736;-74
2021/11/08 09:44:01;;;;;;;;;;;10.10;99.90;;;;;;5069984;28;20318;-74
2021/11/08 09:46:27;;;;;;;;;;;10.20;99.90;;;;;;5072290;28;19917;-74
2021/11/08 09:48:52;;;;;;;;;;;10.20;99.90;;;;;;5078170;28;19917;-74
2021/11/08 09:51:19;;;;;;;;;;;10.30;99.90;;;;;;5069797;28;19912;-74
2021/11/08 09:53:44;;;;;;;;;;;10.40;99.90;;;;;;5071078;28;19921;-75
2021/11/08 09:56:11;;;;;;;;;;;10.40;99.90;;;;;;5078748;28;19916;-74
2021/11/08 09:58:37;;;;;;;;;;;10.40;99.90;;;;;;5067123;28;20616;-74
2021/11/08 10:01:06;;;;;;;;;;;10.50;99.90;;;;;;5071832;28;19920;-74
2021/11/08 10:03:33;;;;;;;;;;;10.50;99.90;;;;;;5071889;28;19916;-74
2021/11/08 10:06:00;;;;;;;;;;;10.50;99.90;;;;;;5073849;28;19958;-74
2021/11/08 10:08:30;;;;;;;;;;;10.60;99.90;;;;;;5075037;28;20324;-74
2021/11/08 10:10:57;;;;;;;;;;;10.60;99.90;;;;;;5074029;28;19920;-74
2021/11/08 10:13:27;;;;;;;;;;;10.60;99.90;;;;;;5072198;28;19962;-74
2021/11/08 10:15:55;;;;;;;;;;;10.70;99.90;;;;;;5071930;28;20266;-75
2021/11/08 10:18:21;;;;;;;;;;;10.80;99.90;;;;;;5073238;28;20235;-75
2021/11/08 10:20:48;;;;;;;;;;;10.90;99.90;;;;;;5071073;28;20261;-74
2021/11/08 10:23:15;;;;;;;;;;;11.00;99.90;;;;;;5073394;28;19913;-75
2021/11/08 10:25:42;;;;;;;;;;;11.20;99.90;;;;;;5072078;28;19977;-75
2021/11/08 10:28:11;;;;;;;;;;;11.30;99.90;;;;;;5071822;28;19928;-74
2021/11/08 10:30:38;;;;;;;;;;;11.40;99.90;;;;;;5067720;28;20203;-75
2021/11/08 10:33:08;;;;;;;;;;;11.40;99.90;;;;;;5062487;28;20303;-75
2021/11/08 10:35:39;;;;;;;;;;;11.50;99.90;;;;;;5059852;28;19916;-75
2021/11/08 10:38:16;;;;;;;;;;;11.50;99.90;;;;;;5060249;28;19921;-75
2021/11/08 10:40:44;;;;;;;;;;;11.50;99.90;;;;;;5061277;28;20043;-75
2021/11/08 10:43:10;;;;;;;;;;;11.50;99.90;;;;;;5065853;28;19916;-75
2021/11/08 10:45:47;;;;;;;;;;;11.50;99.90;;;;;;5068109;28;19913;-75
2021/11/08 10:48:17;;;;;;;;;;;11.40;99.90;;;;;;5063948;28;20022;-75
2021/11/08 10:50:44;;;;;;;;;;;11.40;99.90;;;;;;5063377;28;19958;-75
2021/11/08 10:53:09;;;;;;;;;;;11.50;99.90;;;;;;5057775;28;20323;-75
2021/11/08 10:55:35;;;;;;;;;;;11.40;99.90;;;;;;5061505;28;19969;-75
2021/11/08 10:58:15;;;;;;;;;;;11.50;99.90;;;;;;5070066;28;20266;-75
2021/11/08 11:00:47;;;;;;;;;;;11.40;99.90;;;;;;5072543;28;19912;-75
2021/11/08 11:03:13;;;;;;;;;;;11.40;99.90;;;;;;5076334;28;20002;-73
2021/11/08 11:05:42;;;;;;;;;;;11.40;99.90;;;;;;5074397;28;19950;-74
2021/11/08 11:08:10;;;;;;;;;;;11.30;99.90;;;;;;5075564;28;20222;-75
2021/11/08 11:10:36;;;;;;;;;;;11.40;99.90;;;;;;5076542;28;19916;-75
2021/11/08 11:13:01;;;;;;;;;;;11.40;99.90;;;;;;5075937;28;19926;-75
2021/11/08 11:15:32;;;;;;;;;;;11.50;99.90;;;;;;5073431;28;19924;-75
2021/11/08 11:17:59;;;;;;;;;;;11.60;99.90;;;;;;5074687;28;19920;-75
2021/11/08 11:20:29;;;;;;;;;;;11.60;99.90;;;;;;5083951;28;19917;-75
2021/11/08 11:23:04;;;;;;;;;;;11.70;99.90;;;;;;5070918;28;20227;-75
2021/11/08 11:25:30;;;;;;;;;;;11.70;99.90;;;;;;5072578;28;19920;-75
2021/11/08 11:28:00;;;;;;;;;;;11.60;99.90;;;;;;5082768;28;19916;-75
2021/11/08 11:30:33;;;;;;;;;;;11.60;99.90;;;;;;5070908;28;19916;-75
2021/11/08 11:33:01;;;;;;;;;;;11.50;99.90;;;;;;5072651;28;20420;-75
2021/11/08 11:35:28;;;;;;;;;;;11.40;99.90;;;;;;5068293;28;19999;-75
2021/11/08 11:37:56;;;;;;;;;;;11.30;99.90;;;;;;5067960;28;20377;-75
2021/11/08 11:40:23;;;;;;;;;;;11.20;99.90;;;;;;5071303;28;20348;-75
2021/11/08 11:42:50;;;;;;;;;;;11.00;99.90;;;;;;5067845;28;19916;-74
2021/11/08 11:45:16;;;;;;;;;;;10.90;99.90;;;;;;5069145;28;19912;-74
2021/11/08 11:47:42;;;;;;;;;;;10.70;99.90;;;;;;5072307;28;19923;-75
2021/11/08 11:50:08;;;;;;;;;;;10.80;99.90;;;;;;5075036;28;20218;-76
2021/11/08 11:52:41;;;;;;;;;;;10.80;99.90;;;;;;5072021;28;19913;-75
2021/11/08 11:55:07;;;;;;;;;;;10.80;99.90;;;;;;5088286;28;20400;-75
2021/11/08 11:57:33;;;;;;;;;;;10.80;99.90;;;;;;5072947;28;19916;-74
2021/11/08 11:59:58;;;;;;;;;;;10.70;99.90;;;;;;5073947;28;19912;-75
2021/11/08 12:02:26;;;;;;;;;;;10.70;99.90;;;;;;5073578;28;19930;-75
2021/11/08 12:04:51;;;;;;;;;;;10.70;99.90;;;;;;5070839;28;19913;-74
2021/11/08 12:07:17;;;;;;;;;;;10.80;99.90;;;;;;5078881;28;20292;-75
2021/11/08 12:09:43;;;;;;;;;;;10.80;99.90;;;;;;5074681;28;19916;-74
2021/11/08 12:12:09;;;;;;;;;;;10.80;99.90;;;;;;5073229;28;19923;-74
2021/11/08 12:14:36;;;;;;;;;;;10.80;99.90;;;;;;5086708;28;19974;-74
2021/11/08 12:17:07;;;;;;;;;;;10.80;99.90;;;;;;5072567;28;20403;-75
2021/11/08 12:19:35;;;;;;;;;;;10.90;99.90;;;;;;5071714;28;19920;-75
2021/11/08 12:22:11;;;;;;;;;;;10.90;99.90;;;;;;5072201;28;19927;-74
2021/11/08 12:24:37;;;;;;;;;;;10.90;99.90;;;;;;5075182;28;19921;-75
2021/11/08 12:27:06;;;;;;;;;;;11.00;99.90;;;;;;5073412;28;20299;-74
2021/11/08 12:29:32;;;;;;;;;;;11.10;99.90;;;;;;5073368;28;19912;-75
2021/11/08 12:32:05;;;;;;;;;;;11.00;99.90;;;;;;5073649;28;20311;-75
2021/11/08 12:34:37;;;;;;;;;;;11.10;99.90;;;;;;5072785;28;19913;-75
2021/11/08 12:37:03;;;;;;;;;;;11.00;99.90;;;;;;5072407;28;20311;-75
2021/11/08 12:39:29;;;;;;;;;;;11.00;99.90;;;;;;5075506;28;19924;-75
2021/11/08 12:42:01;;;;;;;;;;;11.00;99.90;;;;;;5072572;28;19921;-75
2021/11/08 12:44:43;;;;;;;;;;;11.10;99.90;;;;;;5071980;28;20212;-75
2021/11/08 12:47:10;;;;;;;;;;;11.10;99.90;;;;;;5073778;28;20270;-75
2021/11/08 12:49:36;;;;;;;;;;;11.20;99.90;;;;;;5073793;28;19921;-75
2021/11/08 12:52:05;;;;;;;;;;;11.20;99.90;;;;;;5075259;28;20202;-76
2021/11/08 12:54:42;;;;;;;;;;;11.20;99.90;;;;;;5072546;28;19924;-76
2021/11/08 12:57:09;;;;;;;;;;;11.30;99.90;;;;;;5071242;28;20342;-75
2021/11/08 12:59:42;;;;;;;;;;;11.40;99.90;;;;;;5070333;28;20279;-75
2021/11/08 13:02:16;;;;;;;;;;;11.40;99.90;;;;;;5069674;28;20015;-74
2021/11/08 13:04:48;;;;;;;;;;;11.40;99.90;;;;;;5071588;28;20587;-75
2021/11/08 13:07:14;;;;;;;;;;;11.60;99.90;;;;;;5076830;28;19982;-74
2021/11/08 13:09:44;;;;;;;;;;;11.60;99.90;;;;;;5083485;28;20218;-74
2021/11/08 13:12:11;;;;;;;;;;;11.70;99.90;;;;;;5071874;28;19920;-75
2021/11/08 13:14:36;;;;;;;;;;;11.80;99.90;;;;;;5073102;28;20012;-74
2021/11/08 13:17:04;;;;;;;;;;;11.90;99.90;;;;;;5085033;28;20549;-75
2021/11/08 13:19:30;;;;;;;;;;;11.90;99.90;;;;;;5072043;28;19977;-74
2021/11/08 13:21:55;;;;;;;;;;;12.00;99.90;;;;;;5070310;28;19916;-75
2021/11/08 13:24:21;;;;;;;;;;;12.10;99.90;;;;;;5073191;28;19912;-74
2021/11/08 13:26:48;;;;;;;;;;;12.10;99.90;;;;;;5069860;28;19923;-75
2021/11/08 13:29:15;;;;;;;;;;;12.10;99.90;;;;;;5070199;28;19939;-75
2021/11/08 13:31:41;;;;;;;;;;;12.00;99.90;;;;;;5074072;28;20286;-75
2021/11/08 13:34:06;;;;;;;;;;;12.10;99.90;;;;;;5072184;28;19971;-75
2021/11/08 13:36:32;;;;;;;;;;;12.10;99.90;;;;;;5071841;28;19938;-75
2021/11/08 13:39:00;;;;;;;;;;;12.10;99.90;;;;;;5072285;28;19930;-75
2021/11/08 13:41:30;;;;;;;;;;;12.10;99.90;;;;;;5069172;28;20012;-75
2021/11/08 13:43:57;;;;;;;;;;;12.10;99.90;;;;;;5073414;28;19917;-75
2021/11/08 13:46:27;;;;;;;;;;;12.00;99.90;;;;;;5070319;28;20063;-75
2021/11/08 13:48:54;;;;;;;;;;;12.00;99.90;;;;;;5073680;28;19920;-75
2021/11/08 13:51:27;;;;;;;;;;;12.10;99.90;;;;;;5067070;28;19912;-75
2021/11/08 13:53:54;;;;;;;;;;;12.10;99.90;;;;;;5086777;28;19982;-75
2021/11/08 13:56:20;;;;;;;;;;;12.10;99.90;;;;;;5086337;28;19916;-75
2021/11/08 13:58:48;;;;;;;;;;;12.10;99.90;;;;;;5069800;28;19920;-75
2021/11/08 14:01:14;;;;;;;;;;;12.10;99.90;;;;;;5069838;28;19948;-75
2021/11/08 14:03:41;;;;;;;;;;;12.10;99.90;;;;;;5073920;28;19971;-75
2021/11/08 14:06:07;;;;;;;;;;;12.00;99.90;;;;;;5084536;28;19923;-75
2021/11/08 14:08:35;;;;;;;;;;;12.00;99.90;;;;;;5068981;28;19964;-75
2021/11/08 14:11:01;;;;;;;;;;;12.00;99.90;;;;;;5080859;28;19920;-75
2021/11/08 14:13:31;;;;;;;;;;;12.00;99.90;;;;;;5071323;28;19916;-75
2021/11/08 14:16:01;;;;;;;;;;;11.90;99.90;;;;;;5074703;28;19916;-75
2021/11/08 14:18:26;;;;;;;;;;;11.90;99.90;;;;;;5075471;28;19917;-75
2021/11/08 14:21:02;;;;;;;;;;;11.80;99.90;;;;;;5073556;28;19974;-75
2021/11/08 14:23:28;;;;;;;;;;;11.80;99.90;;;;;;5078852;28;19920;-75
2021/11/08 14:25:53;;;;;;;;;;;11.70;99.90;;;;;;5076713;28;19913;-75
2021/11/08 14:28:25;;;;;;;;;;;11.60;99.90;;;;;;5079818;28;19916;-75
2021/11/08 14:30:50;;;;;;;;;;;11.60;99.90;;;;;;5087037;28;19916;-75
2021/11/08 14:33:16;;;;;;;;;;;11.50;99.90;;;;;;5073639;28;20365;-75
2021/11/08 14:35:42;;;;;;;;;;;11.50;99.90;;;;;;5092586;28;19916;-75
2021/11/08 14:38:28;;;;;;;;;;;11.40;99.90;;;;;;4951853;28;20505;-92
2021/11/08 14:41:12;;;;;;;;;;;11.40;99.90;;;;;;4812849;28;20743;-82
2021/11/08 14:43:39;;;;;;;;;;;11.30;99.90;;;;;;4941503;28;19920;-75
2021/11/08 14:46:08;;;;;;;;;;;11.20;99.90;;;;;;5069409;28;19913;-75
2021/11/08 14:48:35;;;;;;;;;;;11.20;99.90;;;;;;5074318;28;19913;-76
2021/11/08 14:51:07;;;;;;;;;;;11.10;99.90;;;;;;5060767;28;19916;-75
2021/11/08 14:53:35;;;;;;;;;;;11.10;99.90;;;;;;5078243;28;19969;-75
2021/11/08 14:56:03;;;;;;;;;;;11.10;99.90;;;;;;5075026;28;20331;-75
2021/11/08 14:58:29;;;;;;;;;;;11.00;99.90;;;;;;5077239;28;20024;-77
2021/11/08 15:00:54;;;;;;;;;;;11.00;99.90;;;;;;5066762;28;19958;-76
2021/11/08 15:03:22;;;;;;;;;;;11.00;99.90;;;;;;5078863;28;19966;-75
2021/11/08 15:05:49;;;;;;;;;;;11.00;99.90;;;;;;5065518;28;19923;-75
2021/11/08 15:08:16;;;;;;;;;;;10.90;99.90;;;;;;5075073;28;19919;-75
2021/11/08 15:10:47;;;;;;;;;;;10.90;99.90;;;;;;5072558;28;19973;-75
2021/11/08 15:13:13;;;;;;;;;;;10.80;99.90;;;;;;5083409;28;20305;-77
2021/11/08 15:15:39;;;;;;;;;;;10.80;99.90;;;;;;5080728;28;19916;-76
2021/11/08 15:18:15;;;;;;;;;;;10.80;99.90;;;;;;5078717;28;19925;-75
2021/11/08 15:20:43;;;;;;;;;;;10.80;99.90;;;;;;5060175;28;19920;-75
2021/11/08 15:23:14;;;;;;;;;;;10.70;99.90;;;;;;5076471;28;20176;-76
2021/11/08 15:25:45;;;;;;;;;;;10.70;99.90;;;;;;5071885;28;20017;-75
2021/11/08 15:28:27;;;;;;;;;;;10.70;99.90;;;;;;5066873;28;19955;-75
2021/11/08 15:31:03;;;;;;;;;;;10.70;99.90;;;;;;5077634;28;20016;-75
2021/11/08 15:33:30;;;;;;;;;;;10.60;99.90;;;;;;5077665;28;19924;-87
2021/11/08 15:36:00;;;;;;;;;;;10.60;99.90;;;;;;5074829;28;20241;-75
2021/11/08 15:38:29;;;;;;;;;;;10.60;99.90;;;;;;5073919;28;20252;-76
2021/11/08 15:40:55;;;;;;;;;;;10.50;99.90;;;;;;5074435;28;19920;-75
2021/11/08 15:43:21;;;;;;;;;;;10.50;99.90;;;;;;5074043;28;20011;-75
2021/11/08 15:45:50;;;;;;;;;;;10.50;99.90;;;;;;5075311;28;19913;-75
2021/11/08 15:48:16;;;;;;;;;;;10.50;99.90;;;;;;5087621;28;19928;-75
2021/11/08 15:50:41;;;;;;;;;;;10.50;99.90;;;;;;5074635;28;19916;-81
2021/11/08 15:53:08;;;;;;;;;;;10.50;99.90;;;;;;5073332;28;19912;-75
2021/11/08 15:55:39;;;;;;;;;;;10.40;99.90;;;;;;5075246;28;19916;-76
2021/11/08 15:58:05;;;;;;;;;;;10.40;99.90;;;;;;5074709;28;19927;-75
2021/11/08 16:00:31;;;;;;;;;;;10.40;99.90;;;;;;5075330;28;19913;-79
2021/11/08 16:02:57;;;;;;;;;;;10.40;99.90;;;;;;5072598;28;19924;-76
2021/11/08 16:05:23;;;;;;;;;;;10.40;99.90;;;;;;5072063;28;19919;-75
2021/11/08 16:07:48;;;;;;;;;;;10.40;99.90;;;;;;5074206;28;19966;-75
2021/11/08 16:10:14;;;;;;;;;;;10.40;99.90;;;;;;5073474;28;20200;-74
2021/11/08 16:12:39;;;;;;;;;;;10.30;99.90;;;;;;5073393;28;19920;-76
2021/11/08 16:15:05;;;;;;;;;;;10.20;99.90;;;;;;5072554;28;20257;-76
2021/11/08 16:17:31;;;;;;;;;;;10.20;99.90;;;;;;5058992;28;20284;-75